Latest Weather Observations for Charles Point

IDD60801

Issued at 9:31 pm CST Thursday 22 June 2017 (issued every 30 minutes, with the page automatically refreshed every 10 minutes)

About weather observations | Map of weather stations | Latest weather observations for NT | Other Formats
Station Details ID: 014031 Name: CHARLES POINT Lat: -12.39 Lon: 130.63 Height: 14.0 m
Data from the previous 72 hours. | See also: Recent months for locations in Northern Territory
Date/Time
CST
Temp
°C
App
Temp
°C
Dew
Point
°C
Rel
Hum
%
Delta-T
°C
Wind Press
QNH
hPa
Press
MSL
hPa
Rain since
9am
mm
Dir  Spd
km/h
Gust
km/h
Spd
kts
Gust
kts
22/09:30pm 22.8 25.6 19.6 82 2.0 NE 4 6 2 3 1014.6 1014.5 0.0
22/09:00pm 23.8 27.5 19.9 79 2.5 CALM 0 2 0 1 1014.5 1014.4 0.0
22/08:30pm 23.8 27.0 19.7 78 2.6 NE 2 6 1 3 1014.3 1014.2 0.0
22/08:00pm 23.9 27.2 19.0 74 3.1 CALM 0 2 0 1 1014.0 1013.9 0.0
22/07:30pm 25.1 27.5 18.8 68 4.0 NE 4 7 2 4 1013.6 1013.5 0.0
22/07:00pm 26.2 27.9 19.3 65 4.4 NNE 9 13 5 7 1013.3 1013.2 0.0
22/06:30pm 26.4 27.7 19.3 65 4.6 NNE 11 15 6 8 1012.8 1012.7 0.0
22/06:00pm 27.0 28.4 19.6 64 4.8 NNE 11 15 6 8 1012.5 1012.4 0.0
22/05:30pm 27.6 28.9 19.4 61 5.3 NNE 11 17 6 9 1012.2 1012.1 0.0
22/05:00pm 28.1 29.2 18.8 57 6.0 NNE 11 15 6 8 1012.0 1011.9 0.0
22/04:30pm 28.3 30.1 18.7 56 6.2 NNE 7 13 4 7 1011.9 1011.8 0.0
22/04:00pm 28.4 30.5 19.3 57 5.9 NNE 7 13 4 7 1011.8 1011.7 0.0
22/03:30pm 28.0 29.8 18.7 57 6.0 NNE 7 11 4 6 1012.1 1012.0 0.0
22/03:00pm 28.6 30.0 17.8 52 6.9 NNE 7 11 4 6 1012.3 1012.2 0.0
22/02:30pm 28.0 28.5 18.4 56 6.1 NNE 13 17 7 9 1012.5 1012.4 0.0
22/02:00pm 29.6 31.5 19.0 53 6.9 NE 7 13 4 7 1012.9 1012.8 0.0
22/01:30pm 29.2 30.3 18.0 51 7.1 NE 9 13 5 7 1013.1 1013.0 0.0
22/01:00pm 31.1 32.5 17.8 45 8.5 ENE 7 13 4 7 1013.5 1013.4 0.0
22/12:30pm 30.2 31.5 17.6 46 8.0 ENE 7 13 4 7 1014.0 1013.9 0.0
22/12:00pm 28.6 29.7 17.2 50 7.2 ENE 7 13 4 7 1014.3 1014.2 0.0
22/11:30am 28.1 27.8 14.3 42 8.3 E 9 15 5 8 1014.6 1014.5 0.0
22/11:00am 27.9 27.6 14.5 44 8.1 E 9 17 5 9 1015.1 1015.0 0.0
22/10:30am 26.8 26.0 13.9 45 7.7 E 11 19 6 10 1015.2 1015.1 0.0
22/10:00am 26.5 25.9 14.6 48 7.1 ESE 11 19 6 10 1015.3 1015.2 0.0
22/09:30am 25.6 25.5 15.9 55 5.9 ESE 11 20 6 11 1015.4 1015.3 0.0
22/09:00am 25.2 26.4 19.1 69 3.9 ESE 11 20 6 11 1015.3 1015.2 0.0
22/08:30am 24.1 26.4 19.4 75 3.0 SE 6 11 3 6 1015.1 1015.0 0.0
22/08:00am 23.1 24.4 18.4 75 3.0 SE 9 15 5 8 1014.7 1014.6 0.0
22/07:30am 22.3 23.3 17.7 75 2.9 ESE 9 15 5 8 1014.5 1014.4 0.0
22/07:00am 22.2 22.9 17.1 73 3.1 SE 9 15 5 8 1014.3 1014.2 0.0
22/06:30am 22.3 23.0 17.0 72 3.2 SE 9 15 5 8 1013.9 1013.8 0.0
22/06:00am 22.5 23.3 17.2 72 3.3 SE 9 13 5 7 1013.6 1013.5 0.0
22/05:30am 22.9 23.6 17.1 70 3.6 SE 9 13 5 7 1013.4 1013.3 0.0
22/05:00am 22.8 23.8 16.8 69 3.7 SE 7 11 4 6 1013.5 1013.4 0.0
22/04:30am 22.9 23.8 17.6 72 3.3 SSE 9 13 5 7 1013.3 1013.2 0.0
22/04:00am 21.5 23.5 19.1 86 1.5 S 7 11 4 6 1013.4 1013.3 0.0
22/03:30am 21.7 24.0 19.8 89 1.2 S 7 9 4 5 1013.5 1013.4 0.0
22/03:00am 21.9 24.1 19.6 87 1.5 S 7 9 4 5 1013.8 1013.7 0.0
22/02:30am 22.1 24.3 19.6 86 1.6 S 7 9 4 5 1013.8 1013.7 0.0
22/02:00am 22.5 24.8 19.9 85 1.7 S 7 9 4 5 1014.0 1013.9 0.0
22/01:30am 22.8 25.2 20.1 85 1.7 SSW 7 11 4 6 1014.3 1014.2 0.0
22/01:00am 22.8 25.5 20.3 86 1.6 SSW 6 9 3 5 1014.3 1014.2 0.0
22/12:30am 22.7 25.4 20.2 86 1.6 SSW 6 9 3 5 1014.4 1014.3 0.0
22/12:00am 23.0 25.8 20.5 86 1.6 SSW 6 9 3 5 1014.6 1014.5 0.0
 
Date/Time
CST
Temp
°C
App
Temp
°C
Dew
Point
°C
Rel
Hum
%
Delta-T
°C
Wind Press
QNH
hPa
Press
MSL
hPa
Rain since
9am
mm
Dir  Spd
km/h
Gust
km/h
Spd
kts
Gust
kts
21/11:30pm 23.0 25.8 20.5 86 1.6 SSW 6 9 3 5 1014.7 1014.6 0.0
21/11:00pm 22.9 25.7 20.4 86 1.6 SSW 6 9 3 5 1014.5 1014.4 0.0
21/10:30pm 23.1 26.0 20.6 86 1.6 SSW 6 9 3 5 1014.6 1014.5 0.0
21/10:00pm 23.3 26.1 20.8 86 1.6 SW 7 11 4 6 1014.4 1014.3 0.0
21/09:30pm 23.2 25.9 20.3 84 1.9 WSW 6 7 3 4 1014.2 1014.1 0.0
21/09:00pm 22.8 25.2 19.6 82 2.0 NW 6 7 3 4 1014.0 1013.9 0.0
21/08:30pm 23.4 25.9 19.8 80 2.3 NNW 6 7 3 4 1013.7 1013.6 0.0
21/08:00pm 24.1 27.4 20.0 78 2.7 NNE 2 6 1 3 1013.2 1013.1 0.0
21/07:30pm 24.1 27.7 19.8 77 2.8 CALM 0 2 0 1 1012.9 1012.8 0.0
21/07:00pm 24.7 28.3 19.8 74 3.2 CALM 0 4 0 2 1012.7 1012.6 0.0
21/06:30pm 26.4 29.2 20.5 70 3.9 NNE 6 9 3 5 1012.4 1012.3 0.0
21/06:00pm 27.1 29.5 20.0 65 4.6 NNE 7 11 4 6 1011.8 1011.7 0.0
21/05:30pm 27.3 29.6 19.9 64 4.8 NNE 7 13 4 7 1011.5 1011.4 0.0
21/05:00pm 27.6 29.7 19.4 61 5.3 NNE 7 15 4 8 1011.5 1011.4 0.0
21/04:30pm 28.2 30.4 19.7 60 5.5 NNE 7 9 4 5 1011.4 1011.3 0.0
21/04:00pm 28.6 30.6 19.2 56 6.1 NNE 7 13 4 7 1011.4 1011.3 0.0
21/03:30pm 28.3 29.8 19.0 57 6.0 N 9 13 5 7 1011.5 1011.4 0.0
21/03:00pm 28.1 28.6 19.3 58 5.7 N 15 19 8 10 1011.6 1011.5 0.0
21/02:30pm 28.2 28.7 19.2 58 5.8 NNE 15 20 8 11 1011.8 1011.7 0.0
21/02:00pm 30.9 32.6 19.3 50 7.6 ENE 9 15 5 8 1012.1 1012.0 0.0
21/01:30pm 31.4 30.1 13.6 33 10.7 ESE 13 20 7 11 1012.4 1012.3 0.0
21/01:00pm 31.0 29.6 13.3 34 10.6 ESE 13 24 7 13 1012.8 1012.7 0.0
21/12:30pm 30.9 29.6 13.7 35 10.4 ESE 13 26 7 14 1013.3 1013.2 0.0
21/12:00pm 29.9 28.8 14.4 38 9.4 ESE 13 28 7 15 1013.6 1013.5 0.0
21/11:30am 29.7 29.4 15.4 42 8.8 ESE 11 20 6 11 1014.0 1013.9 0.0
21/11:00am 29.5 29.6 15.6 43 8.6 ESE 9 20 5 11 1014.3 1014.2 0.0
21/10:30am 27.8 26.9 14.8 45 7.9 ESE 13 24 7 13 1014.5 1014.4 0.0
21/10:00am 27.3 26.9 15.3 48 7.3 ESE 11 19 6 10 1014.6 1014.5 0.0
21/09:30am 26.6 27.1 16.5 54 6.2 SE 9 19 5 10 1014.7 1014.6 0.0
21/09:00am 26.0 26.5 16.5 55 5.9 SE 9 19 5 10 1014.6 1014.5 0.0
21/08:30am 24.8 25.2 16.2 58 5.3 SE 9 17 5 9 1014.3 1014.2 0.0
21/08:00am 24.0 24.2 15.8 60 5.0 SE 9 13 5 7 1014.0 1013.9 0.0
21/07:30am 23.7 24.3 15.7 61 4.8 SE 7 13 4 7 1013.8 1013.7 0.0
21/07:00am 23.4 23.8 16.2 64 4.4 SSE 9 13 5 7 1013.6 1013.5 0.0
21/06:30am 23.2 23.8 16.7 67 4.0 SSE 9 15 5 8 1013.2 1013.1 0.0
21/06:00am 22.5 23.3 17.4 73 3.1 SSE 9 13 5 7 1013.0 1012.9 0.0
21/05:30am 22.4 23.4 17.8 75 2.9 S 9 13 5 7 1012.8 1012.7 0.0
21/05:00am 22.3 23.4 18.1 77 2.6 S 9 13 5 7 1012.7 1012.6 0.0
21/04:30am 22.2 23.3 18.0 77 2.6 S 9 13 5 7 1012.7 1012.6 0.0
21/04:00am 22.0 23.5 18.0 78 2.5 S 7 11 4 6 1012.9 1012.8 0.0
21/03:30am 22.4 23.9 18.0 76 2.7 S 7 9 4 5 1013.0 1012.9 0.0
21/03:00am 22.5 23.8 17.6 74 3.0 S 7 9 4 5 1013.2 1013.1 0.0
21/02:30am 22.9 24.4 18.0 74 3.1 SSW 7 9 4 5 1013.4 1013.3 0.0
21/02:00am 22.8 24.5 18.1 75 2.9 SSW 6 9 3 5 1013.4 1013.3 0.0
21/01:30am 23.1 25.3 18.4 75 3.0 SSW 4 7 2 4 1013.6 1013.5 0.0
21/01:00am 23.5 25.3 18.8 75 3.0 SSW 7 9 4 5 1013.6 1013.5 0.0
21/12:30am 24.1 26.0 19.0 73 3.2 S 7 11 4 6 1013.6 1013.5 0.0
21/12:00am 24.6 26.5 19.7 74 3.2 SSW 9 13 5 7 1013.7 1013.6 0.0
 
Date/Time
CST
Temp
°C
App
Temp
°C
Dew
Point
°C
Rel
Hum
%
Delta-T
°C
Wind Press
QNH
hPa
Press
MSL
hPa
Rain since
9am
mm
Dir  Spd
km/h
Gust
km/h
Spd
kts
Gust
kts
20/11:30pm 24.6 26.7 20.1 76 2.9 SSW 9 15 5 8 1013.9 1013.8 0.0
20/11:00pm 24.6 26.8 20.5 78 2.7 SSW 9 15 5 8 1014.0 1013.9 0.0
20/10:30pm 24.7 27.3 20.4 77 2.8 SSE 7 9 4 5 1014.0 1013.9 0.0
20/10:00pm 24.8 27.2 19.6 73 3.3 ESE 6 9 3 5 1013.9 1013.8 0.0
20/09:30pm 25.1 27.9 19.7 72 3.5 E 4 6 2 3 1013.7 1013.6 0.0
20/09:00pm 25.1 28.9 20.1 74 3.2 CALM 0 6 0 3 1013.3 1013.2 0.0
20/08:30pm 25.4 28.8 20.2 73 3.4 ENE 2 4 1 2 1012.9 1012.8 0.0
20/08:00pm 26.0 29.3 20.8 73 3.4 NE 4 7 2 4 1012.7 1012.6 0.0
20/07:30pm 25.7 28.7 20.0 71 3.7 ENE 4 7 2 4 1012.4 1012.3 0.0
20/07:00pm 25.9 29.0 20.2 71 3.7 NE 4 9 2 5 1012.0 1011.9 0.0
20/06:30pm 26.4 28.8 20.9 72 3.6 NE 9 15 5 8 1011.8 1011.7 0.0
20/06:00pm 27.0 28.5 20.6 68 4.2 NE 13 20 7 11 1011.6 1011.5 0.0
20/05:30pm 27.4 28.6 20.7 67 4.4 NE 15 20 8 11 1011.3 1011.2 0.0
20/05:00pm 27.8 28.2 20.6 65 4.7 NE 19 28 10 15 1011.1 1011.0 0.0
20/04:30pm 28.0 29.6 20.0 61 5.2 NNE 11 19 6 10 1011.1 1011.0 0.0
20/04:00pm 28.1 29.4 20.1 62 5.2 NE 13 19 7 10 1011.0 1010.9 0.0
20/03:30pm 29.2 31.3 20.1 58 6.0 NNE 9 13 5 7 1011.0 1010.9 0.0
20/03:00pm 29.0 31.2 19.3 55 6.3 NNE 6 7 3 4 1011.2 1011.1 0.0
20/02:30pm 28.9 31.2 19.5 57 6.1 NNE 6 7 3 4 1011.5 1011.4 0.0
20/02:00pm 29.5 31.9 20.1 57 6.2 NNE 7 11 4 6 1011.9 1011.8 0.0
20/01:30pm 27.7 29.4 18.4 57 5.9 N 7 9 4 5 1012.4 1012.3 0.0
20/01:00pm 27.8 29.1 18.5 57 5.9 NNE 9 13 5 7 1012.7 1012.6 0.0
20/12:30pm 29.0 30.4 17.8 50 7.1 NE 7 9 4 5 1013.0 1012.9 0.0
20/12:00pm 29.1 30.9 18.8 53 6.6 NE 7 11 4 6 1013.4 1013.3 0.0
20/11:30am 29.7 31.3 18.2 50 7.4 ENE 7 11 4 6 1013.5 1013.4 0.0
20/11:00am 28.6 29.1 15.5 45 8.0 ESE 7 17 4 9 1013.8 1013.7 0.0
20/10:30am 28.7 29.7 16.9 48 7.4 ESE 7 15 4 8 1013.8 1013.7 0.0
20/10:00am 27.5 28.4 16.5 51 6.8 SE 7 13 4 7 1014.0 1013.9 0.0
20/09:30am 26.5 27.9 17.3 57 5.8 SE 6 9 3 5 1014.1 1014.0 0.0
20/09:00am 25.4 26.5 17.1 60 5.2 SE 7 11 4 6 1014.0 1013.9 0.0
20/08:30am 24.6 26.2 17.8 66 4.3 SE 6 9 3 5 1013.7 1013.6 0.0
20/08:00am 23.1 25.1 18.8 77 2.7 SE 6 9 3 5 1013.3 1013.2 0.0
20/07:30am 21.0 22.8 18.4 85 1.6 SSE 6 7 3 4 1013.1 1013.0 0.0
20/07:00am 21.0 22.9 18.6 86 1.5 SSE 6 9 3 5 1012.9 1012.8 0.0
20/06:30am 21.1 23.0 18.5 85 1.6 SSE 6 9 3 5 1012.6 1012.5 0.0
20/06:00am 21.7 23.5 18.7 83 1.9 SE 7 9 4 5 1012.5 1012.4 0.0
20/05:30am 21.6 23.3 18.6 83 1.9 SSE 7 11 4 6 1012.4 1012.3 0.0
20/05:00am 21.7 23.8 18.9 84 1.8 SE 6 9 3 5 1012.4 1012.3 0.0
20/04:30am 21.4 23.6 18.4 83 1.9 SE 4 7 2 4 1012.4 1012.3 0.0
20/04:00am 21.7 23.7 18.7 83 1.9 SSE 6 7 3 4 1012.4 1012.3 0.0
20/03:30am 21.4 23.7 18.6 84 1.8 SSE 4 6 2 3 1012.3 1012.2 0.0
20/03:00am 21.5 23.5 18.7 84 1.8 SSE 6 6 3 3 1012.6 1012.5 0.0
20/02:30am 21.3 23.7 18.7 85 1.6 SSE 4 6 2 3 1012.6 1012.5 0.0
20/02:00am 21.6 23.6 18.8 84 1.8 SSE 6 6 3 3 1012.9 1012.8 0.0
20/01:30am 21.9 24.3 18.9 83 1.9 SSE 4 6 2 3 1013.3 1013.2 0.0
20/01:00am - - - - - S 4 6 2 3 1013.7 1013.6 0.0
20/12:30am - - - - - S 4 6 2 3 1013.8 1013.7 0.0
20/12:00am 22.3 24.7 19.7 85 1.7 S 6 6 3 3 1013.9 1013.8 0.0
 
Date/Time
CST
Temp
°C
App
Temp
°C
Dew
Point
°C
Rel
Hum
%
Delta-T
°C
Wind Press
QNH
hPa
Press
MSL
hPa
Rain since
9am
mm
Dir  Spd
km/h
Gust
km/h
Spd
kts
Gust
kts
19/11:30pm 22.6 25.1 19.9 85 1.7 S 6 7 3 4 1014.1 1014.0 0.0
19/11:00pm 22.9 25.3 20.1 84 1.8 S 7 9 4 5 1014.3 1014.2 0.0
19/10:30pm 23.3 25.8 20.2 83 2.0 S 7 11 4 6 1014.3 1014.2 0.0
19/10:00pm 22.8 25.2 19.6 82 2.0 S 6 7 3 4 1014.2 1014.1 0.0

Other Formats:

Comma delimited format used in spreadsheet applications
http://www.bom.gov.au/fwo/IDD60801/IDD60801.99510.axf

JavaScript Object Notation format (JSON) in row-major order
http://www.bom.gov.au/fwo/IDD60801/IDD60801.99510.json